createdAt,value
2023-02-11T00:01:58.402Z,94.30
2023-02-11T00:04:29.090Z,94.80
2023-02-11T00:06:59.753Z,94.50
2023-02-11T00:09:31.857Z,95.00
2023-02-11T00:12:02.619Z,94.60
2023-02-11T00:14:33.287Z,94.70
2023-02-11T00:17:03.999Z,94.60
2023-02-11T00:19:34.763Z,94.70
2023-02-11T00:22:05.394Z,94.70
2023-02-11T00:24:36.522Z,94.60
2023-02-11T00:27:07.366Z,94.60
2023-02-11T00:29:39.108Z,94.60
2023-02-11T00:32:10.100Z,94.60
2023-02-11T00:34:41.370Z,94.60
2023-02-11T00:37:13.217Z,94.50
2023-02-11T00:39:44.172Z,94.50
2023-02-11T00:42:16.933Z,94.60
2023-02-11T00:44:48.339Z,94.60
2023-02-11T00:47:18.979Z,95.00
2023-02-11T00:49:49.799Z,94.50
2023-02-11T00:52:20.739Z,94.50
2023-02-11T00:54:51.937Z,94.50
2023-02-11T00:57:22.624Z,94.50
2023-02-11T00:59:53.500Z,94.50
2023-02-11T01:02:24.254Z,94.50
2023-02-11T01:04:55.218Z,94.50
2023-02-11T01:07:25.891Z,94.50
2023-02-11T01:09:57.014Z,94.60
2023-02-11T01:12:27.795Z,94.70
2023-02-11T01:14:59.148Z,94.40
2023-02-11T01:17:30.499Z,95.20
2023-02-11T01:20:01.565Z,95.30
2023-02-11T01:22:32.788Z,95.30
2023-02-11T01:25:04.015Z,95.30
2023-02-11T01:27:35.069Z,95.30
2023-02-11T01:30:07.773Z,95.30
2023-02-11T01:32:39.051Z,95.30
2023-02-11T01:35:10.886Z,95.30
2023-02-11T01:37:41.618Z,95.20
2023-02-11T01:40:15.366Z,95.10
2023-02-11T01:42:47.543Z,95.10
2023-02-11T01:45:43.751Z,94.70
2023-02-11T01:48:16.830Z,94.40
2023-02-11T01:50:50.126Z,94.20
2023-02-11T01:53:39.254Z,94.10
2023-02-11T01:56:28.619Z,94.00
2023-02-11T01:59:03.255Z,94.10
2023-02-11T02:01:36.986Z,94.20
2023-02-11T02:04:09.270Z,94.10
2023-02-11T02:06:48.855Z,94.00
2023-02-11T02:09:31.615Z,94.00
2023-02-11T02:12:05.277Z,94.10
2023-02-11T02:14:39.156Z,94.10
2023-02-11T02:17:10.996Z,94.00
2023-02-11T02:19:59.750Z,93.70
2023-02-11T02:22:51.277Z,93.70
2023-02-11T02:25:33.835Z,93.80
2023-02-11T02:28:22.348Z,93.60
2023-02-11T02:31:17.257Z,93.40
2023-02-11T02:33:59.880Z,93.50
2023-02-11T02:36:48.401Z,93.50
2023-02-11T02:39:25.074Z,93.50
2023-02-11T02:41:55.156Z,93.60
2023-02-11T02:44:26.724Z,93.60
2023-02-11T02:46:57.850Z,93.60
2023-02-11T02:49:29.054Z,93.50
2023-02-11T02:52:25.310Z,93.40
2023-02-11T02:54:56.567Z,93.30
2023-02-11T02:57:54.033Z,93.30
2023-02-11T03:00:31.166Z,93.20
2023-02-11T03:03:14.034Z,93.40
2023-02-11T03:05:59.469Z,93.00
2023-02-11T03:08:38.524Z,92.90
2023-02-11T03:11:14.814Z,92.40
2023-02-11T03:13:47.560Z,92.50
2023-02-11T03:16:24.167Z,92.60
2023-02-11T03:18:57.590Z,92.30
2023-02-11T03:21:29.446Z,92.30
2023-02-11T03:24:03.028Z,92.00
2023-02-11T03:26:51.077Z,91.80
2023-02-11T03:29:28.352Z,91.70
2023-02-11T03:32:19.710Z,91.70
2023-02-11T03:34:53.736Z,91.50
2023-02-11T03:37:36.038Z,91.30
2023-02-11T03:40:12.963Z,90.90
2023-02-11T03:42:58.303Z,89.80
2023-02-11T03:45:30.800Z,90.10
2023-02-11T03:48:10.354Z,89.60
2023-02-11T03:50:43.162Z,89.60
2023-02-11T03:53:17.863Z,89.90
2023-02-11T03:55:53.186Z,88.80
2023-02-11T03:58:24.383Z,87.40
2023-02-11T04:00:54.995Z,87.20
2023-02-11T04:03:25.672Z,87.40
2023-02-11T04:05:56.473Z,86.00
2023-02-11T04:08:27.593Z,85.10
2023-02-11T04:10:59.396Z,84.10
2023-02-11T04:13:32.505Z,83.80
2023-02-11T04:16:03.950Z,83.20
2023-02-11T04:18:35.305Z,83.40
2023-02-11T04:21:10.372Z,83.00
2023-02-11T04:23:41.559Z,81.90
2023-02-11T04:26:14.349Z,81.50
2023-02-11T04:28:50.208Z,80.80
2023-02-11T04:31:24.530Z,80.60
2023-02-11T04:33:57.062Z,79.30
2023-02-11T04:36:27.999Z,79.00
2023-02-11T04:38:59.284Z,79.60
2023-02-11T04:41:30.455Z,80.20
2023-02-11T04:44:01.710Z,81.30
2023-02-11T04:46:35.565Z,86.90
2023-02-11T04:49:07.807Z,91.30
2023-02-11T04:51:39.210Z,94.40
2023-02-11T04:54:10.178Z,98.50
2023-02-11T04:59:13.786Z,99.90
2023-02-11T05:06:45.142Z,75.40
2023-02-11T05:09:16.349Z,75.00
2023-02-11T05:11:48.364Z,74.80
2023-02-11T05:14:32.469Z,74.50
2023-02-11T05:17:03.292Z,75.10
2023-02-11T05:19:34.962Z,74.20
2023-02-11T05:22:06.177Z,73.70
2023-02-11T05:24:37.553Z,73.50
2023-02-11T05:27:08.873Z,72.60
2023-02-11T05:29:40.308Z,73.60
2023-02-11T05:32:12.236Z,72.60
2023-02-11T05:34:42.936Z,72.70
2023-02-11T05:37:14.009Z,71.90
2023-02-11T05:39:45.227Z,71.80
2023-02-11T05:42:16.542Z,72.20
2023-02-11T05:44:51.454Z,71.40
2023-02-11T05:47:22.171Z,70.80
2023-02-11T05:49:54.522Z,69.50
2023-02-11T05:52:25.830Z,69.30
2023-02-11T05:54:56.492Z,69.60
2023-02-11T05:57:27.205Z,69.80
2023-02-11T05:59:57.968Z,69.30
2023-02-11T06:02:28.968Z,70.40
2023-02-11T06:04:59.625Z,70.60
2023-02-11T06:07:31.099Z,69.90
2023-02-11T06:10:01.894Z,68.90
2023-02-11T06:12:32.866Z,69.40
2023-02-11T06:15:03.566Z,69.00
2023-02-11T06:17:34.936Z,69.30
2023-02-11T06:20:09.646Z,70.40
2023-02-11T06:22:40.433Z,67.80
2023-02-11T06:25:12.373Z,67.80
2023-02-11T06:27:43.219Z,69.10
2023-02-11T06:30:15.035Z,69.70
2023-02-11T06:32:46.233Z,69.80
2023-02-11T06:35:18.075Z,67.10
2023-02-11T06:37:50.289Z,67.20
2023-02-11T06:40:21.126Z,67.00
2023-02-11T06:42:51.811Z,66.30
2023-02-11T06:45:22.626Z,64.90
2023-02-11T06:47:54.711Z,65.70
2023-02-11T06:50:25.526Z,66.10
2023-02-11T06:52:56.310Z,66.80
2023-02-11T06:55:28.904Z,63.50
2023-02-11T07:00:49.587Z,64.60
2023-02-11T07:03:20.472Z,62.60
2023-02-11T07:05:51.543Z,61.60
2023-02-11T07:08:22.390Z,62.30
2023-02-11T07:10:54.916Z,62.10
2023-02-11T07:13:25.579Z,61.70
2023-02-11T07:15:56.271Z,62.20
2023-02-11T07:18:27.025Z,61.90
2023-02-11T07:20:57.732Z,61.30
2023-02-11T07:23:28.460Z,60.40
2023-02-11T07:25:59.264Z,60.80
2023-02-11T07:28:29.916Z,61.30
2023-02-11T07:31:01.208Z,61.50
2023-02-11T07:33:32.000Z,60.80
2023-02-11T07:36:04.054Z,60.20
2023-02-11T07:38:35.747Z,59.80
2023-02-11T07:41:14.993Z,59.10
2023-02-11T07:43:46.824Z,59.30
2023-02-11T07:46:23.063Z,58.90
2023-02-11T07:48:52.668Z,60.20
2023-02-11T07:51:26.139Z,59.70
2023-02-11T07:53:57.971Z,60.60
2023-02-11T07:56:43.234Z,60.00
2023-02-11T08:02:06.124Z,59.40
2023-02-11T08:04:36.755Z,59.50
2023-02-11T08:07:07.935Z,59.10
2023-02-11T08:09:38.693Z,60.80
2023-02-11T08:12:09.560Z,59.40
2023-02-11T08:14:44.549Z,59.70
2023-02-11T08:17:15.313Z,60.80
2023-02-11T08:19:46.343Z,60.30
2023-02-11T08:22:17.442Z,59.80
2023-02-11T08:25:08.605Z,59.40
2023-02-11T08:27:39.871Z,59.80
2023-02-11T08:30:11.606Z,59.70
2023-02-11T08:32:42.766Z,59.40
2023-02-11T08:35:14.032Z,59.70
2023-02-11T08:37:44.920Z,59.80
2023-02-11T08:40:15.713Z,59.70
2023-02-11T08:42:46.461Z,60.10
2023-02-11T08:45:17.821Z,60.20
2023-02-11T08:47:49.201Z,59.60
2023-02-11T08:50:20.704Z,59.40
2023-02-11T08:52:52.963Z,59.60
2023-02-11T08:55:23.656Z,58.90
2023-02-11T08:57:54.926Z,59.00
2023-02-11T09:00:26.145Z,58.60
2023-02-11T09:05:58.392Z,57.30
2023-02-11T09:08:29.742Z,56.20
2023-02-11T09:11:01.928Z,56.00
2023-02-11T09:13:34.025Z,57.30
2023-02-11T09:16:06.603Z,58.60
2023-02-11T09:18:37.388Z,58.50
2023-02-11T09:21:09.867Z,59.30
2023-02-11T09:23:43.296Z,58.60
2023-02-11T09:26:16.599Z,58.10
2023-02-11T09:28:48.088Z,58.20
2023-02-11T09:31:21.483Z,58.40
2023-02-11T09:33:55.086Z,57.50
2023-02-11T09:36:28.298Z,58.00
2023-02-11T09:39:02.189Z,58.00
2023-02-11T09:41:47.311Z,58.30
2023-02-11T09:44:26.236Z,58.00
2023-02-11T09:47:00.093Z,58.50
2023-02-11T09:49:50.245Z,59.20
2023-02-11T09:52:45.808Z,59.20
2023-02-11T09:55:31.077Z,59.80
2023-02-11T09:58:03.413Z,59.70
2023-02-11T10:00:49.238Z,59.60
2023-02-11T10:03:26.386Z,60.00
2023-02-11T10:06:11.910Z,61.20
2023-02-11T10:09:01.984Z,60.00
2023-02-11T10:11:36.915Z,59.60
2023-02-11T10:14:46.447Z,60.30
2023-02-11T10:17:43.392Z,59.50
2023-02-11T10:20:32.539Z,60.70
2023-02-11T10:23:14.919Z,59.90
2023-02-11T10:25:51.852Z,60.40
2023-02-11T10:28:26.016Z,60.80
2023-02-11T10:31:12.279Z,61.00
2023-02-11T10:33:48.585Z,61.20
2023-02-11T10:36:20.933Z,61.40
2023-02-11T10:38:51.818Z,61.90
2023-02-11T10:41:37.919Z,61.50
2023-02-11T10:44:09.926Z,62.30
2023-02-11T10:46:42.615Z,62.30
2023-02-11T10:49:16.128Z,62.40
2023-02-11T10:51:47.629Z,62.70
2023-02-11T10:54:22.462Z,63.00
2023-02-11T10:56:56.013Z,63.30
2023-02-11T10:59:32.509Z,63.40
2023-02-11T11:02:11.601Z,63.50
2023-02-11T11:04:52.365Z,63.80
2023-02-11T11:07:25.833Z,63.70
2023-02-11T11:10:00.425Z,63.80
2023-02-11T11:12:49.698Z,64.80
2023-02-11T11:15:26.544Z,64.00
2023-02-11T11:18:24.067Z,64.00
2023-02-11T11:21:09.667Z,64.10
2023-02-11T11:23:41.212Z,64.40
2023-02-11T11:26:14.449Z,64.80
2023-02-11T11:28:57.112Z,64.90
2023-02-11T11:31:39.097Z,65.20
2023-02-11T11:34:27.332Z,65.40
2023-02-11T11:36:59.265Z,65.50
2023-02-11T11:39:35.490Z,65.80
2023-02-11T11:42:08.763Z,65.70
2023-02-11T11:44:41.155Z,65.70
2023-02-11T11:47:17.994Z,66.20
2023-02-11T11:50:06.590Z,66.10
2023-02-11T11:52:40.057Z,66.10
2023-02-11T11:55:23.113Z,66.30
2023-02-11T11:57:54.055Z,66.50
2023-02-11T12:00:39.147Z,66.60
2023-02-11T12:03:27.399Z,66.50
2023-02-11T12:06:21.571Z,66.70
2023-02-11T12:09:00.458Z,66.80
2023-02-11T12:11:45.749Z,66.80
2023-02-11T12:14:27.827Z,67.00
2023-02-11T12:17:13.299Z,67.00
2023-02-11T12:20:19.281Z,67.20
2023-02-11T12:23:14.867Z,67.30
2023-02-11T12:25:58.968Z,67.40
2023-02-11T12:28:32.230Z,67.60
2023-02-11T12:31:21.898Z,67.50
2023-02-11T12:34:07.231Z,67.40
2023-02-11T12:36:46.414Z,67.70
2023-02-11T12:39:38.563Z,67.80
2023-02-11T12:42:56.614Z,68.00
2023-02-11T12:45:56.214Z,68.10
2023-02-11T12:48:48.807Z,68.10
2023-02-11T12:51:40.616Z,68.30
2023-02-11T12:54:16.575Z,68.40
2023-02-11T12:56:52.592Z,68.40
2023-02-11T12:59:28.381Z,68.60
2023-02-11T13:02:00.583Z,68.70
2023-02-11T13:04:40.006Z,68.80
2023-02-11T13:07:25.141Z,68.90
2023-02-11T13:10:03.173Z,68.90
2023-02-11T13:12:53.537Z,69.10
2023-02-11T13:15:25.088Z,69.10
2023-02-11T13:18:04.206Z,69.50
2023-02-11T13:20:52.343Z,69.70
2023-02-11T13:23:37.448Z,69.70
2023-02-11T13:26:26.911Z,70.00
2023-02-11T13:29:08.991Z,70.00
2023-02-11T13:31:39.898Z,70.10
2023-02-11T13:34:29.970Z,70.40
2023-02-11T13:37:00.808Z,70.40
2023-02-11T13:39:31.482Z,70.40
2023-02-11T13:42:06.346Z,70.60
2023-02-11T13:44:37.668Z,70.70
2023-02-11T13:47:09.116Z,70.80
2023-02-11T13:49:44.313Z,71.10
2023-02-11T13:52:33.113Z,71.10
2023-02-11T13:55:09.443Z,71.00
2023-02-11T13:57:41.418Z,71.20
2023-02-11T14:00:37.504Z,71.20
2023-02-11T14:03:34.097Z,71.30
2023-02-11T14:06:33.830Z,71.50
2023-02-11T14:09:12.972Z,71.30
2023-02-11T14:11:51.761Z,71.70
2023-02-11T14:14:25.284Z,71.70
2023-02-11T14:17:10.519Z,71.80
2023-02-11T14:19:46.193Z,71.90
2023-02-11T14:22:22.074Z,71.80
2023-02-11T14:25:01.106Z,71.80
2023-02-11T14:27:49.970Z,71.90
2023-02-11T14:30:39.842Z,72.10
2023-02-11T14:33:34.325Z,72.10
2023-02-11T14:36:16.480Z,72.10
2023-02-11T14:39:01.428Z,72.00
2023-02-11T14:41:40.739Z,72.10
2023-02-11T14:44:20.200Z,72.10
2023-02-11T14:46:54.416Z,72.10
2023-02-11T14:49:40.393Z,71.90
2023-02-11T14:52:19.543Z,71.70
2023-02-11T14:54:52.567Z,71.90
2023-02-11T14:57:23.826Z,71.80
2023-02-11T15:00:06.833Z,72.00
2023-02-11T15:02:41.628Z,72.00
2023-02-11T15:05:24.825Z,71.90
2023-02-11T15:07:58.406Z,72.00
2023-02-11T15:10:37.554Z,72.00
2023-02-11T15:13:08.447Z,71.90
2023-02-11T15:15:41.908Z,72.00
2023-02-11T15:18:15.293Z,72.10
2023-02-11T15:20:46.194Z,72.20
2023-02-11T15:23:20.879Z,72.30
2023-02-11T15:25:55.891Z,72.40
2023-02-11T15:28:35.207Z,72.50
2023-02-11T15:31:17.431Z,72.70
2023-02-11T15:33:48.333Z,72.70
2023-02-11T15:36:21.493Z,73.00
2023-02-11T15:39:11.248Z,72.90
2023-02-11T15:41:42.023Z,73.00
2023-02-11T15:44:29.714Z,73.10
2023-02-11T15:47:00.988Z,73.20
2023-02-11T15:49:31.850Z,73.20
2023-02-11T15:52:02.527Z,73.50
2023-02-11T15:54:33.586Z,73.60
2023-02-11T15:57:09.839Z,74.20
2023-02-11T15:59:42.792Z,74.20
2023-02-11T16:02:25.020Z,74.20
2023-02-11T16:04:58.620Z,74.60
2023-02-11T16:07:51.644Z,75.20
2023-02-11T16:10:34.730Z,75.80
2023-02-11T16:13:08.121Z,76.20
2023-02-11T16:15:47.317Z,78.20
2023-02-11T16:18:31.055Z,78.50
2023-02-11T16:20:55.248Z,78.90
2023-02-11T16:23:31.409Z,78.70
2023-02-11T16:26:06.045Z,78.80
2023-02-11T16:28:38.058Z,78.70
2023-02-11T16:31:10.897Z,78.90
2023-02-11T16:33:41.773Z,79.10
2023-02-11T16:36:18.827Z,79.50
2023-02-11T16:38:49.515Z,79.50
2023-02-11T16:41:20.162Z,79.50
2023-02-11T16:43:50.815Z,79.60
2023-02-11T16:46:21.613Z,79.70
2023-02-11T16:48:52.433Z,79.80
2023-02-11T16:51:23.356Z,79.90
2023-02-11T16:53:54.005Z,80.00
2023-02-11T16:56:24.660Z,80.10
2023-02-11T16:58:55.313Z,80.00
2023-02-11T17:01:26.135Z,79.70
2023-02-11T17:03:56.940Z,79.60
2023-02-11T17:06:27.792Z,79.70
2023-02-11T17:08:58.532Z,79.80
2023-02-11T17:11:29.209Z,79.90
2023-02-11T17:13:59.845Z,79.90
2023-02-11T17:16:31.069Z,80.00
2023-02-11T17:19:01.749Z,80.00
2023-02-11T17:21:33.106Z,79.90
2023-02-11T17:24:03.791Z,80.00
2023-02-11T17:26:35.811Z,79.60
2023-02-11T17:29:10.427Z,79.80
2023-02-11T17:31:42.927Z,79.50
2023-02-11T17:34:14.174Z,79.30
2023-02-11T17:36:44.921Z,79.80
2023-02-11T17:39:15.861Z,79.30
2023-02-11T17:41:46.529Z,80.40
2023-02-11T17:44:17.777Z,79.60
2023-02-11T17:46:48.470Z,79.90
2023-02-11T17:49:19.212Z,79.90
2023-02-11T17:51:49.855Z,80.00
2023-02-11T17:54:21.600Z,80.00
2023-02-11T17:56:52.256Z,80.00
2023-02-11T17:59:23.475Z,80.20
2023-02-11T18:01:54.156Z,80.20
2023-02-11T18:04:24.812Z,80.30
2023-02-11T18:06:55.624Z,80.20
2023-02-11T18:09:27.422Z,80.10
2023-02-11T18:11:59.506Z,80.20
2023-02-11T18:14:30.123Z,80.20
2023-02-11T18:17:00.775Z,80.50
2023-02-11T18:19:33.131Z,81.30
2023-02-11T18:22:05.428Z,80.80
2023-02-11T18:24:36.052Z,80.70
2023-02-11T18:27:06.909Z,80.90
2023-02-11T18:29:38.063Z,81.10
2023-02-11T18:32:08.983Z,81.10
2023-02-11T18:34:41.107Z,81.30
2023-02-11T18:37:12.699Z,81.30
2023-02-11T18:39:43.537Z,81.40
2023-02-11T18:42:14.205Z,81.70
2023-02-11T18:44:45.212Z,81.90
2023-02-11T18:47:15.854Z,81.80
2023-02-11T18:49:46.650Z,82.00
2023-02-11T18:52:17.428Z,82.70
2023-02-11T18:54:48.446Z,82.60
2023-02-11T18:57:19.109Z,82.70
2023-02-11T18:59:50.179Z,82.70
2023-02-11T19:02:21.470Z,82.40
2023-02-11T19:04:52.307Z,82.70
2023-02-11T19:07:22.981Z,82.70
2023-02-11T19:09:53.960Z,82.80
2023-02-11T19:12:24.590Z,83.10
2023-02-11T19:14:55.341Z,83.30
2023-02-11T19:17:25.972Z,83.40
2023-02-11T19:19:56.719Z,83.70
2023-02-11T19:22:27.544Z,84.10
2023-02-11T19:24:58.216Z,84.30
2023-02-11T19:27:29.284Z,84.50
2023-02-11T19:29:59.951Z,84.80
2023-02-11T19:32:30.991Z,84.90
2023-02-11T19:35:01.726Z,85.60
2023-02-11T19:37:32.447Z,85.00
2023-02-11T19:40:03.301Z,85.00
2023-02-11T19:42:33.953Z,84.90
2023-02-11T19:45:04.663Z,85.00
2023-02-11T19:47:35.505Z,85.00
2023-02-11T19:50:07.609Z,85.00
2023-02-11T19:52:42.505Z,85.20
2023-02-11T19:55:13.244Z,85.30
2023-02-11T19:57:43.908Z,85.50
2023-02-11T20:00:15.544Z,85.70
2023-02-11T20:02:47.642Z,85.70
2023-02-11T20:05:18.584Z,86.00
2023-02-11T20:07:49.261Z,86.10
2023-02-11T20:10:20.343Z,86.00
2023-02-11T20:12:51.447Z,86.40
2023-02-11T20:15:22.228Z,86.30
2023-02-11T20:18:04.795Z,86.20
2023-02-11T20:20:35.832Z,86.30
2023-02-11T20:23:06.466Z,86.40
2023-02-11T20:25:38.364Z,87.60
2023-02-11T20:28:09.119Z,86.80
2023-02-11T20:30:40.570Z,86.80
2023-02-11T20:33:11.366Z,87.00
2023-02-11T20:35:42.013Z,87.20
2023-02-11T20:38:12.674Z,87.50
2023-02-11T20:40:44.789Z,87.80
2023-02-11T20:43:15.428Z,87.90
2023-02-11T20:45:46.072Z,88.10
2023-02-11T20:48:17.123Z,88.40
2023-02-11T20:50:48.430Z,88.40
2023-02-11T20:53:19.146Z,88.70
2023-02-11T20:55:50.026Z,88.60
2023-02-11T20:58:20.835Z,88.70
2023-02-11T21:00:51.497Z,88.70
2023-02-11T21:03:22.289Z,89.20
2023-02-11T21:05:53.367Z,88.80
2023-02-11T21:08:24.281Z,89.00
2023-02-11T21:10:54.957Z,89.00
2023-02-11T21:13:25.592Z,89.10
2023-02-11T21:15:59.480Z,89.10
2023-02-11T21:18:30.223Z,89.00
2023-02-11T21:21:01.266Z,89.10
2023-02-11T21:23:32.105Z,89.00
2023-02-11T21:26:02.801Z,89.20
2023-02-11T21:28:33.543Z,89.30
2023-02-11T21:31:04.692Z,90.20
2023-02-11T21:33:35.928Z,89.50
2023-02-11T21:36:09.012Z,89.40
2023-02-11T21:38:40.128Z,90.10
2023-02-11T21:41:11.503Z,89.50
2023-02-11T21:43:42.179Z,89.60
2023-02-11T21:46:15.472Z,89.40
2023-02-11T21:48:46.173Z,89.50
2023-02-11T21:51:18.974Z,89.70
2023-02-11T21:53:49.859Z,89.70
2023-02-11T21:56:21.417Z,89.90
2023-02-11T21:58:54.532Z,89.70
2023-02-11T22:01:30.448Z,89.70
2023-02-11T22:04:01.285Z,90.00
2023-02-11T22:06:33.638Z,90.00
2023-02-11T22:09:12.317Z,90.00
2023-02-11T22:11:43.002Z,90.00
2023-02-11T22:14:13.638Z,90.10
2023-02-11T22:16:45.588Z,90.20
2023-02-11T22:19:16.400Z,90.30
2023-02-11T22:21:47.116Z,90.50
2023-02-11T22:24:17.775Z,90.60
2023-02-11T22:26:48.447Z,90.30
2023-02-11T22:29:19.071Z,90.40
2023-02-11T22:31:49.766Z,90.40
2023-02-11T22:34:20.702Z,90.50
2023-02-11T22:36:51.363Z,90.50
2023-02-11T22:39:22.006Z,90.60
2023-02-11T22:41:53.123Z,90.60
2023-02-11T22:44:23.787Z,90.70
2023-02-11T22:46:55.726Z,90.70
2023-02-11T22:49:26.398Z,90.80
2023-02-11T22:51:57.367Z,90.90
2023-02-11T22:54:28.135Z,90.90
2023-02-11T22:56:58.799Z,91.00
2023-02-11T22:59:29.454Z,91.00
2023-02-11T23:02:00.209Z,91.10
2023-02-11T23:04:31.039Z,91.20
2023-02-11T23:07:01.697Z,91.30
2023-02-11T23:09:32.890Z,91.30
2023-02-11T23:12:03.554Z,91.40
2023-02-11T23:14:34.455Z,91.40
2023-02-11T23:17:05.083Z,91.50
2023-02-11T23:19:35.699Z,91.60
2023-02-11T23:22:06.587Z,91.60
2023-02-11T23:24:37.259Z,91.60
2023-02-11T23:27:07.964Z,91.70
2023-02-11T23:29:38.568Z,91.80
2023-02-11T23:32:09.342Z,91.90
2023-02-11T23:34:40.087Z,91.90
2023-02-11T23:37:10.794Z,92.00
2023-02-11T23:39:41.465Z,92.00
2023-02-11T23:42:13.181Z,92.00
2023-02-11T23:44:43.819Z,92.00
2023-02-11T23:47:14.474Z,92.10
2023-02-11T23:49:45.126Z,92.60
2023-02-11T23:52:15.847Z,92.10
2023-02-11T23:54:47.835Z,92.00
2023-02-11T23:57:19.054Z,92.10
2023-02-11T23:59:51.440Z,92.20
